Time;durP1;ratioP1;P1;durP2;ratioP2;P2;SDS_P1;SDS_P2;PMS_P1;PMS_P2;Temp;Humidity;BMP_temperature;BMP_pressure;BME280_temperature;BME280_humidity;BME280_pressure;Samples;Min_cycle;Max_cycle;Signal;HPM_P1;HPM_P2
2022/07/14 00:00:24;;;;;;;5.53;2.22;;;14.90;99.90;;;;;;5085731;28;20048;-65
2022/07/14 00:02:51;;;;;;;6.00;2.28;;;14.90;99.90;;;;;;5084948;28;20048;-65
2022/07/14 00:05:17;;;;;;;9.55;2.53;;;14.90;99.90;;;;;;5085140;28;20063;-65
2022/07/14 00:07:43;;;;;;;6.93;2.65;;;14.80;99.90;;;;;;5085461;28;20044;-65
2022/07/14 00:10:09;;;;;;;6.38;1.98;;;14.80;99.90;;;;;;5084786;28;20048;-65
2022/07/14 00:12:34;;;;;;;6.20;2.47;;;14.80;99.90;;;;;;5085778;28;20131;-65
2022/07/14 00:15:00;;;;;;;6.55;2.38;;;14.70;99.90;;;;;;5085488;28;20044;-64
2022/07/14 00:17:26;;;;;;;7.68;2.85;;;14.70;99.90;;;;;;5085033;28;20452;-65
2022/07/14 00:19:51;;;;;;;6.55;2.53;;;14.70;99.90;;;;;;5085055;28;20498;-65
2022/07/14 00:22:17;;;;;;;6.25;2.60;;;14.70;99.90;;;;;;5085247;28;20051;-65
2022/07/14 00:24:42;;;;;;;6.95;2.67;;;14.70;99.90;;;;;;5085544;28;20103;-65
2022/07/14 00:27:08;;;;;;;5.95;2.45;;;14.70;99.90;;;;;;5085133;28;20105;-65
2022/07/14 00:29:37;;;;;;;11.05;2.55;;;14.60;99.90;;;;;;5083463;28;20044;-65
2022/07/14 00:32:06;;;;;;;7.32;2.95;;;14.60;99.90;;;;;;5084368;28;20480;-65
2022/07/14 00:34:31;;;;;;;6.97;2.33;;;14.60;99.90;;;;;;5085526;28;20052;-65
2022/07/14 00:36:57;;;;;;;7.97;2.28;;;14.60;99.90;;;;;;5084420;28;20044;-65
2022/07/14 00:39:23;;;;;;;7.93;2.80;;;14.60;99.90;;;;;;5083943;28;20135;-65
2022/07/14 00:41:48;;;;;;;8.40;2.78;;;14.70;99.90;;;;;;5085922;28;20044;-65
2022/07/14 00:44:15;;;;;;;6.35;2.38;;;14.70;99.90;;;;;;5084863;28;20050;-66
2022/07/14 00:46:41;;;;;;;6.75;2.75;;;14.70;99.90;;;;;;5085169;28;20062;-65
2022/07/14 00:49:06;;;;;;;8.38;2.33;;;14.70;99.90;;;;;;5085028;28;20555;-65
2022/07/14 00:51:32;;;;;;;10.52;3.58;;;14.80;99.90;;;;;;5088190;28;20463;-65
2022/07/14 00:53:57;;;;;;;8.20;2.33;;;14.80;99.90;;;;;;5088802;28;20052;-65
2022/07/14 00:56:23;;;;;;;4.95;2.35;;;14.70;99.90;;;;;;5088769;28;20391;-65
2022/07/14 00:58:49;;;;;;;5.55;2.17;;;14.60;99.90;;;;;;5088268;28;20402;-65
2022/07/14 01:01:15;;;;;;;22.20;3.22;;;14.60;99.90;;;;;;5088797;28;20090;-65
2022/07/14 01:03:41;;;;;;;6.43;2.53;;;14.60;99.90;;;;;;5088681;28;20540;-65
2022/07/14 01:06:07;;;;;;;10.15;3.10;;;14.60;99.90;;;;;;5087523;28;20052;-65
2022/07/14 01:08:32;;;;;;;10.43;2.63;;;14.60;99.90;;;;;;5088651;28;20130;-65
2022/07/14 01:10:58;;;;;;;9.55;2.50;;;14.60;99.90;;;;;;5088495;28;20056;-66
2022/07/14 01:13:23;;;;;;;6.22;2.33;;;14.60;99.90;;;;;;5086499;28;20051;-65
2022/07/14 01:15:49;;;;;;;6.20;2.80;;;14.50;99.90;;;;;;5089092;28;20101;-65
2022/07/14 01:18:15;;;;;;;9.25;2.35;;;14.50;99.90;;;;;;5087095;28;20047;-65
2022/07/14 01:20:41;;;;;;;6.93;2.47;;;14.50;99.90;;;;;;5087554;28;20112;-65
2022/07/14 01:23:07;;;;;;;5.70;2.30;;;14.50;99.90;;;;;;5088277;28;20081;-65
2022/07/14 01:25:33;;;;;;;4.07;2.40;;;14.50;99.90;;;;;;5086636;28;20406;-65
2022/07/14 01:27:59;;;;;;;9.15;3.13;;;14.50;99.90;;;;;;5086459;28;20055;-65
2022/07/14 01:30:24;;;;;;;6.45;2.53;;;14.60;99.90;;;;;;5088097;28;20040;-65
2022/07/14 01:32:51;;;;;;;7.50;2.33;;;14.50;99.90;;;;;;5087589;28;20379;-65
2022/07/14 01:35:16;;;;;;;7.85;2.17;;;14.50;99.90;;;;;;5088609;28;20039;-64
2022/07/14 01:37:42;;;;;;;7.35;2.03;;;14.50;99.90;;;;;;5088086;28;20596;-65
2022/07/14 01:40:09;;;;;;;4.95;2.67;;;14.40;99.90;;;;;;5087012;28;20055;-65
2022/07/14 01:42:34;;;;;;;7.82;2.30;;;14.40;99.90;;;;;;5088032;28;20054;-64
2022/07/14 01:45:00;;;;;;;11.20;2.67;;;14.40;99.90;;;;;;5087610;28;20111;-65
2022/07/14 01:47:26;;;;;;;9.43;2.78;;;14.40;99.90;;;;;;5087148;28;20126;-65
2022/07/14 01:49:51;;;;;;;6.30;2.33;;;14.30;99.90;;;;;;5087448;28;20051;-64
2022/07/14 01:52:17;;;;;;;10.10;2.85;;;14.30;99.90;;;;;;5088612;28;20048;-65
2022/07/14 01:54:43;;;;;;;10.38;2.75;;;14.30;99.90;;;;;;5087238;28;20036;-65
2022/07/14 01:57:09;;;;;;;6.40;2.13;;;14.20;99.90;;;;;;5087543;28;20044;-65
2022/07/14 01:59:35;;;;;;;7.63;2.38;;;14.20;99.90;;;;;;5086338;28;20051;-65
2022/07/14 02:02:01;;;;;;;5.22;2.50;;;14.20;99.90;;;;;;5084597;28;20087;-65
2022/07/14 02:04:27;;;;;;;4.32;1.90;;;14.10;99.90;;;;;;5087360;28;20044;-65
2022/07/14 02:06:55;;;;;;;7.22;2.50;;;14.10;99.90;;;;;;5087381;28;20436;-65
2022/07/14 02:09:22;;;;;;;11.75;2.47;;;14.10;99.90;;;;;;5087381;28;20051;-65
2022/07/14 02:14:33;;;;;;;10.02;2.53;;;14.00;99.90;;;;;;5087312;28;20047;-65
2022/07/14 02:17:00;;;;;;;5.10;2.28;;;13.90;99.90;;;;;;5086186;28;20306;-65
2022/07/14 02:19:26;;;;;;;5.60;2.60;;;14.00;99.90;;;;;;5087399;28;20043;-65
2022/07/14 02:21:53;;;;;;;6.43;2.53;;;13.90;99.90;;;;;;5086262;28;20113;-65
2022/07/14 02:24:20;;;;;;;8.32;2.33;;;13.90;99.90;;;;;;5088167;28;20036;-65
2022/07/14 02:26:46;;;;;;;9.70;2.20;;;13.90;99.90;;;;;;5087797;28;20044;-65
2022/07/14 02:29:12;;;;;;;4.60;1.80;;;13.90;99.90;;;;;;5086446;28;20079;-65
2022/07/14 02:31:38;;;;;;;6.97;2.60;;;13.90;99.90;;;;;;5086810;28;20090;-65
2022/07/14 02:34:04;;;;;;;5.68;2.55;;;13.90;99.90;;;;;;5086750;28;20094;-65
2022/07/14 02:36:31;;;;;;;7.65;2.42;;;13.80;99.90;;;;;;5085006;28;20040;-64
2022/07/14 02:38:56;;;;;;;11.27;2.35;;;13.90;99.90;;;;;;5086623;28;20131;-65
2022/07/14 02:41:22;;;;;;;7.38;2.47;;;13.80;99.90;;;;;;5086656;28;20062;-65
2022/07/14 02:43:48;;;;;;;5.00;2.45;;;15.30;99.90;;;;;;5086477;28;20486;-64
2022/07/14 02:46:14;;;;;;;4.35;1.77;;;13.80;99.90;;;;;;5086670;28;20048;-65
2022/07/14 02:48:40;;;;;;;7.45;2.00;;;13.70;99.90;;;;;;5086625;28;20210;-65
2022/07/14 02:51:07;;;;;;;7.72;2.80;;;13.70;99.90;;;;;;5085571;28;20047;-65
2022/07/14 02:53:34;;;;;;;5.38;2.00;;;13.70;99.90;;;;;;5086662;28;20089;-65
2022/07/14 02:56:04;;;;;;;10.18;2.50;;;13.70;99.90;;;;;;5086287;28;20044;-65
2022/07/14 02:58:30;;;;;;;5.20;2.28;;;13.70;99.90;;;;;;5085687;28;20063;-65
2022/07/14 03:00:55;;;;;;;8.45;2.58;;;13.60;99.90;;;;;;5086043;28;20047;-65
2022/07/14 03:03:22;;;;;;;5.93;2.20;;;13.60;99.90;;;;;;5086711;28;20399;-65
2022/07/14 03:05:48;;;;;;;10.15;2.50;;;13.50;99.90;;;;;;5085998;28;20050;-64
2022/07/14 03:08:15;;;;;;;10.45;2.55;;;13.50;99.90;;;;;;5086478;28;20040;-65
2022/07/14 03:10:41;;;;;;;7.65;2.38;;;13.40;99.90;;;;;;5086193;28;20127;-65
2022/07/14 03:13:07;;;;;;;4.57;2.10;;;13.40;99.90;;;;;;5085421;28;20119;-65
2022/07/14 03:15:34;;;;;;;8.48;2.20;;;13.40;99.90;;;;;;5085953;28;20800;-65
2022/07/14 03:18:01;;;;;;;10.57;2.35;;;13.40;99.90;;;;;;5084532;28;20080;-65
2022/07/14 03:20:27;;;;;;;5.05;2.17;;;13.30;99.90;;;;;;5085234;28;20089;-64
2022/07/14 03:22:52;;;;;;;5.50;2.40;;;13.30;99.90;;;;;;5084774;28;20044;-64
2022/07/14 03:25:18;;;;;;;5.63;1.92;;;13.30;99.90;;;;;;5084546;28;20422;-65
2022/07/14 03:27:46;;;;;;;3.85;1.90;;;13.20;99.90;;;;;;5085853;28;20115;-65
2022/07/14 03:30:12;;;;;;;4.53;1.83;;;13.20;99.90;;;;;;5084857;28;20044;-65
2022/07/14 03:32:39;;;;;;;7.10;2.78;;;13.20;99.90;;;;;;5085452;28;20098;-65
2022/07/14 03:35:07;;;;;;;9.10;2.22;;;13.20;99.90;;;;;;5084662;28;20123;-65
2022/07/14 03:37:33;;;;;;;7.22;2.05;;;13.20;99.90;;;;;;5084988;28;20481;-64
2022/07/14 03:39:59;;;;;;;5.60;2.15;;;13.20;99.90;;;;;;5085116;28;20505;-65
2022/07/14 03:42:24;;;;;;;5.93;1.55;;;13.20;99.90;;;;;;5084388;28;20040;-65
2022/07/14 03:44:50;;;;;;;5.22;2.38;;;13.10;99.90;;;;;;5086523;28;20040;-65
2022/07/14 03:47:16;;;;;;;5.65;2.25;;;14.00;99.90;;;;;;5085993;28;20044;-65
2022/07/14 03:49:42;;;;;;;5.55;1.65;;;13.10;99.90;;;;;;5068207;28;20046;-64
2022/07/14 03:52:09;;;;;;;5.40;1.90;;;13.10;99.90;;;;;;5084721;28;20078;-64
2022/07/14 03:54:34;;;;;;;6.53;1.85;;;13.10;99.90;;;;;;5084856;28;20050;-65
2022/07/14 03:57:00;;;;;;;5.45;1.80;;;13.10;99.90;;;;;;5084294;28;20048;-65
2022/07/14 03:59:26;;;;;;;3.03;1.85;;;13.10;99.90;;;;;;5084557;28;20478;-65
2022/07/14 04:01:51;;;;;;;2.78;1.42;;;13.10;99.90;;;;;;5084807;28;20400;-65
2022/07/14 04:04:17;;;;;;;3.47;1.80;;;13.10;99.90;;;;;;5086498;28;20048;-65
2022/07/14 04:06:42;;;;;;;5.13;2.17;;;13.10;99.90;;;;;;5085633;28;20044;-64
2022/07/14 04:09:08;;;;;;;6.22;1.63;;;13.10;99.90;;;;;;5084842;28;20455;-65
2022/07/14 04:11:34;;;;;;;5.90;1.95;;;13.10;99.90;;;;;;5085527;28;20036;-65
2022/07/14 04:13:59;;;;;;;4.20;1.95;;;13.10;99.90;;;;;;5085761;28;20055;-65
2022/07/14 04:16:25;;;;;;;7.68;1.77;;;13.10;99.90;;;;;;5083953;28;20048;-65
2022/07/14 04:18:50;;;;;;;1.63;1.05;;;13.10;99.90;;;;;;5085705;28;20441;-65
2022/07/14 04:21:16;;;;;;;1.80;1.48;;;13.10;99.90;;;;;;5084769;28;20277;-65
2022/07/14 04:23:43;;;;;;;10.30;3.13;;;13.10;99.90;;;;;;5084915;28;20335;-65
2022/07/14 04:26:09;;;;;;;2.35;1.55;;;13.10;99.90;;;;;;5070480;28;20143;-65
2022/07/14 04:28:34;;;;;;;5.07;1.73;;;13.10;99.90;;;;;;5087634;28;20135;-64
2022/07/14 04:31:00;;;;;;;6.50;2.25;;;13.10;99.90;;;;;;5089121;28;20032;-65
2022/07/14 04:33:25;;;;;;;5.63;2.00;;;13.10;99.90;;;;;;5088050;28;20239;-65
2022/07/14 04:35:51;;;;;;;4.65;1.90;;;13.20;99.90;;;;;;5088385;28;20154;-65
2022/07/14 04:38:17;;;;;;;3.30;1.50;;;13.50;99.90;;;;;;5089932;28;20119;-64
2022/07/14 04:40:50;;;;;;;4.00;1.50;;;13.40;99.90;;;;;;5087890;28;20446;-65
2022/07/14 04:43:17;;;;;;;5.25;2.05;;;13.30;99.90;;;;;;5089327;28;20116;-65
2022/07/14 04:45:43;;;;;;;7.35;2.45;;;13.30;99.90;;;;;;5089285;28;20051;-64
2022/07/14 04:48:08;;;;;;;5.53;1.80;;;13.30;99.90;;;;;;5088990;28;20051;-64
2022/07/14 04:53:18;;;;;;;2.28;1.42;;;13.40;99.90;;;;;;5089471;28;20131;-65
2022/07/14 04:55:44;;;;;;;2.47;1.27;;;13.40;99.90;;;;;;5089983;28;20122;-65
2022/07/14 04:58:09;;;;;;;4.20;1.60;;;13.50;99.90;;;;;;5090229;28;20075;-65
2022/07/14 05:00:35;;;;;;;6.72;1.58;;;13.50;99.90;;;;;;5090924;28;20040;-65
2022/07/14 05:03:01;;;;;;;7.95;2.13;;;13.60;99.90;;;;;;5091313;28;20040;-65
2022/07/14 05:05:26;;;;;;;4.53;1.67;;;13.60;99.90;;;;;;5089714;28;20047;-64
2022/07/14 05:07:52;;;;;;;4.40;1.33;;;13.60;99.90;;;;;;5089276;28;20040;-65
2022/07/14 05:10:17;;;;;;;4.90;1.48;;;13.60;99.90;;;;;;5088104;28;20056;-65
2022/07/14 05:12:43;;;;;;;4.25;1.50;;;13.70;99.90;;;;;;5088238;28;20039;-65
2022/07/14 05:15:09;;;;;;;6.38;1.52;;;13.80;99.90;;;;;;5087015;28;20507;-65
2022/07/14 05:17:35;;;;;;;4.18;1.35;;;13.80;99.90;;;;;;5088727;28;20050;-65
2022/07/14 05:20:01;;;;;;;5.65;1.67;;;13.80;99.90;;;;;;5087547;28;20047;-65
2022/07/14 05:22:27;;;;;;;5.28;1.80;;;13.90;99.90;;;;;;5088312;28;20498;-65
2022/07/14 05:24:53;;;;;;;8.80;1.95;;;13.90;99.90;;;;;;5086054;28;20608;-65
2022/07/14 05:27:18;;;;;;;5.35;1.55;;;13.90;99.90;;;;;;5089170;28;20051;-65
2022/07/14 05:29:44;;;;;;;6.18;1.73;;;14.00;99.90;;;;;;5087942;28;20062;-65
2022/07/14 05:32:10;;;;;;;5.35;1.77;;;14.00;99.90;;;;;;5087784;28;20228;-65
2022/07/14 05:34:43;;;;;;;9.73;2.08;;;14.10;99.90;;;;;;5087937;28;20526;-65
2022/07/14 05:37:08;;;;;;;5.55;1.60;;;14.20;99.90;;;;;;5086957;28;20130;-65
2022/07/14 05:39:34;;;;;;;6.38;1.48;;;14.30;99.90;;;;;;5086201;28;20111;-65
2022/07/14 05:41:59;;;;;;;3.65;1.50;;;14.40;99.90;;;;;;5086758;28;20059;-65
2022/07/14 05:44:25;;;;;;;12.15;2.30;;;14.40;99.90;;;;;;5088092;28;20478;-65
2022/07/14 05:46:51;;;;;;;2.97;1.63;;;14.50;99.90;;;;;;5087372;28;20073;-64
2022/07/14 05:49:16;;;;;;;3.67;1.40;;;14.50;99.90;;;;;;5088433;28;20048;-65
2022/07/14 05:51:42;;;;;;;5.72;1.35;;;14.60;99.90;;;;;;5087862;28;20080;-64
2022/07/14 05:54:08;;;;;;;5.18;1.52;;;14.70;99.90;;;;;;5085582;28;20415;-65
2022/07/14 05:56:33;;;;;;;7.78;1.25;;;14.80;99.90;;;;;;5086683;28;20040;-65
2022/07/14 05:58:59;;;;;;;3.40;1.55;;;15.00;99.90;;;;;;5087472;28;20040;-65
2022/07/14 06:01:25;;;;;;;4.97;1.60;;;14.90;99.90;;;;;;5087045;28;20056;-65
2022/07/14 06:03:57;;;;;;;3.65;1.65;;;15.00;99.90;;;;;;5087465;28;20479;-65
2022/07/14 06:06:23;;;;;;;5.68;1.55;;;15.00;99.90;;;;;;5087621;28;20069;-65
2022/07/14 06:08:49;;;;;;;4.50;1.30;;;15.10;99.90;;;;;;5087128;28;20044;-65
2022/07/14 06:11:16;;;;;;;7.05;1.63;;;15.20;99.90;;;;;;5088264;28;20122;-65
2022/07/14 06:13:43;;;;;;;2.75;1.50;;;15.20;99.90;;;;;;5087547;28;20115;-65
2022/07/14 06:16:09;;;;;;;5.25;1.45;;;15.30;99.90;;;;;;5085071;28;20091;-65
2022/07/14 06:18:35;;;;;;;3.83;1.00;;;15.30;99.90;;;;;;5086212;28;20052;-65
2022/07/14 06:21:01;;;;;;;2.80;1.10;;;15.40;99.90;;;;;;5086675;28;20046;-65
2022/07/14 06:23:26;;;;;;;5.07;1.27;;;15.40;99.90;;;;;;5086988;28;20093;-65
2022/07/14 06:25:52;;;;;;;6.53;1.60;;;15.50;99.90;;;;;;5087090;28;20046;-65
2022/07/14 06:28:18;;;;;;;4.63;1.35;;;15.60;99.90;;;;;;5085341;28;20109;-65
2022/07/14 06:30:44;;;;;;;6.78;1.30;;;15.60;99.90;;;;;;5087108;28;20134;-66
2022/07/14 06:33:10;;;;;;;2.80;0.80;;;15.60;99.90;;;;;;5086888;28;20067;-65
2022/07/14 06:35:40;;;;;;;3.90;1.13;;;16.00;99.90;;;;;;5086193;28;20039;-65
2022/07/14 06:38:06;;;;;;;6.68;1.25;;;15.70;99.90;;;;;;5086460;28;20384;-65
2022/07/14 06:40:32;;;;;;;2.55;0.90;;;15.80;99.90;;;;;;5087195;28;20039;-65
2022/07/14 06:42:57;;;;;;;6.75;1.67;;;15.90;99.90;;;;;;5085767;28;20136;-65
2022/07/14 06:45:23;;;;;;;2.78;0.93;;;15.90;99.90;;;;;;5086897;28;20047;-65
2022/07/14 06:47:48;;;;;;;6.00;1.38;;;16.20;99.90;;;;;;5086603;28;20462;-65
2022/07/14 06:50:14;;;;;;;4.10;1.33;;;16.00;99.90;;;;;;5085899;28;20036;-65
2022/07/14 06:52:40;;;;;;;2.78;1.00;;;16.00;99.90;;;;;;5086693;28;20365;-65
2022/07/14 06:55:06;;;;;;;4.72;0.75;;;16.10;99.90;;;;;;5086465;28;20052;-65
2022/07/14 06:57:31;;;;;;;5.78;1.13;;;16.20;99.90;;;;;;5085916;28;20372;-65
2022/07/14 06:59:57;;;;;;;5.50;0.90;;;16.30;99.90;;;;;;5086149;28;20055;-64
2022/07/14 07:02:23;;;;;;;2.10;0.85;;;16.30;99.90;;;;;;5086224;28;20507;-65
2022/07/14 07:06:43;;;;;;;2.75;0.90;;;16.40;99.90;;;;;;5085972;28;20556;-65
2022/07/14 07:07:35;;;;;;;5.38;0.90;;;16.50;99.90;;;;;;5086229;28;20040;-65
2022/07/14 07:10:00;;;;;;;2.90;0.85;;;16.50;99.90;;;;;;5086104;28;20407;-65
2022/07/14 07:12:26;;;;;;;4.65;0.85;;;16.60;99.90;;;;;;5085603;28;20042;-65
2022/07/14 07:14:51;;;;;;;3.55;0.70;;;16.70;99.90;;;;;;5084815;28;20509;-65
2022/07/14 07:17:17;;;;;;;1.88;0.80;;;16.80;99.90;;;;;;5086021;28;20472;-65
2022/07/14 07:19:42;;;;;;;3.58;0.80;;;17.00;99.90;;;;;;5086424;28;20044;-65
2022/07/14 07:22:08;;;;;;;1.83;0.60;;;16.90;99.90;;;;;;5086142;28;20040;-65
2022/07/14 07:24:34;;;;;;;2.08;0.40;;;17.00;99.90;;;;;;5085436;28;20040;-65
2022/07/14 07:26:59;;;;;;;3.45;0.52;;;17.30;99.90;;;;;;5084499;28;20084;-65
2022/07/14 07:29:25;;;;;;;0.88;0.40;;;17.10;99.90;;;;;;5086008;28;20054;-65
2022/07/14 07:31:51;;;;;;;1.25;0.50;;;17.10;99.90;;;;;;5085586;28;20036;-64
2022/07/14 07:34:16;;;;;;;7.10;0.63;;;17.20;99.90;;;;;;5086800;28;20054;-65
2022/07/14 07:36:42;;;;;;;4.38;0.60;;;17.30;99.90;;;;;;5086097;28;20378;-65
2022/07/14 07:39:08;;;;;;;3.78;0.70;;;17.30;99.90;;;;;;5085031;28;20040;-65
2022/07/14 07:41:34;;;;;;;2.88;0.57;;;17.40;99.90;;;;;;5085815;28;20036;-65
2022/07/14 07:43:59;;;;;;;5.97;0.50;;;17.50;99.90;;;;;;5085772;28;20119;-65
2022/07/14 07:46:26;;;;;;;2.75;0.50;;;17.50;99.90;;;;;;5085405;28;20274;-65
2022/07/14 07:48:51;;;;;;;4.18;0.57;;;17.50;99.90;;;;;;5085804;28;20047;-65
2022/07/14 07:51:17;;;;;;;4.03;0.70;;;17.50;99.90;;;;;;5086651;28;20565;-65
2022/07/14 07:53:45;;;;;;;2.10;0.50;;;17.60;99.90;;;;;;5083617;28;20048;-65
2022/07/14 07:56:11;;;;;;;1.52;0.60;;;17.70;99.90;;;;;;5085883;28;20051;-65
2022/07/14 07:58:37;;;;;;;2.08;0.75;;;17.90;99.90;;;;;;5085722;28;20564;-65
2022/07/14 08:01:03;;;;;;;1.00;0.47;;;17.80;99.90;;;;;;5087609;28;20044;-65
2022/07/14 08:03:29;;;;;;;2.80;0.60;;;17.80;99.90;;;;;;5090153;28;20513;-65
2022/07/14 08:05:55;;;;;;;1.42;0.60;;;17.80;99.90;;;;;;5089605;28;20032;-65
2022/07/14 08:08:21;;;;;;;4.00;0.40;;;17.90;99.90;;;;;;5089202;28;20138;-65
2022/07/14 08:10:46;;;;;;;4.78;0.70;;;18.00;99.90;;;;;;5089972;28;20234;-65
2022/07/14 08:13:12;;;;;;;2.47;0.73;;;18.00;99.90;;;;;;5089617;28;20119;-65
2022/07/14 08:15:38;;;;;;;1.73;0.50;;;18.00;99.90;;;;;;5089153;28;20406;-65
2022/07/14 08:18:04;;;;;;;2.63;0.73;;;18.10;99.90;;;;;;5089386;28;20079;-65
2022/07/14 08:20:30;;;;;;;2.55;0.30;;;18.10;99.90;;;;;;5089341;28;20126;-65
2022/07/14 08:22:56;;;;;;;5.13;0.63;;;18.10;99.90;;;;;;5089146;28;20107;-65
2022/07/14 08:25:22;;;;;;;4.45;0.40;;;18.00;99.90;;;;;;5088523;28;20056;-65
2022/07/14 08:27:48;;;;;;;12.25;1.30;;;18.10;99.90;;;;;;5088879;28;20392;-65
2022/07/14 08:30:14;;;;;;;1.38;0.55;;;18.10;99.90;;;;;;5089691;28;20105;-65
2022/07/14 08:32:46;;;;;;;3.67;0.63;;;18.20;99.90;;;;;;5089449;28;20047;-65
2022/07/14 08:35:14;;;;;;;1.63;0.45;;;18.30;99.90;;;;;;5087463;28;20097;-65
2022/07/14 08:37:41;;;;;;;1.95;0.30;;;18.40;99.90;;;;;;5089593;28;20054;-66
2022/07/14 08:40:12;;;;;;;2.15;0.40;;;18.40;99.90;;;;;;5088970;28;20109;-65
2022/07/14 08:42:41;;;;;;;2.42;0.60;;;18.50;99.90;;;;;;5088406;28;20054;-65
2022/07/14 08:45:12;;;;;;;1.10;0.30;;;18.50;99.90;;;;;;5089078;28;20131;-65
2022/07/14 08:47:39;;;;;;;1.83;0.47;;;18.50;99.90;;;;;;5089194;28;20050;-66
2022/07/14 08:50:07;;;;;;;4.45;0.75;;;18.50;99.90;;;;;;5087867;28;20119;-65
2022/07/14 08:52:33;;;;;;;2.00;0.50;;;18.50;99.90;;;;;;5089018;28;20097;-65
2022/07/14 08:54:59;;;;;;;1.48;0.55;;;18.60;99.90;;;;;;5087321;28;20048;-65
2022/07/14 08:57:25;;;;;;;1.85;0.60;;;18.60;99.90;;;;;;5088389;28;20422;-65
2022/07/14 08:59:51;;;;;;;1.42;0.50;;;18.70;99.90;;;;;;5088530;28;20044;-65
2022/07/14 09:02:17;;;;;;;1.42;0.75;;;18.80;99.90;;;;;;5089217;28;20101;-65
2022/07/14 09:04:46;;;;;;;1.27;0.40;;;18.80;99.90;;;;;;5088019;28;20047;-65
2022/07/14 09:07:33;;;;;;;3.90;0.40;;;18.90;99.90;;;;;;5088821;28;20050;-65
2022/07/14 09:10:13;;;;;;;1.65;0.50;;;18.90;99.90;;;;;;5087965;28;20047;-65
2022/07/14 09:12:41;;;;;;;1.95;0.50;;;18.80;99.90;;;;;;5087086;28;20043;-65
2022/07/14 09:18:03;;;;;;;0.73;0.30;;;18.90;99.90;;;;;;5087345;28;20304;-65
2022/07/14 09:20:31;;;;;;;2.75;0.50;;;18.90;99.90;;;;;;5088395;28;20101;-65
2022/07/14 09:22:58;;;;;;;2.42;0.70;;;19.00;99.90;;;;;;5088155;28;20044;-65
2022/07/14 09:25:26;;;;;;;1.42;0.88;;;18.90;99.90;;;;;;5087881;28;20043;-65
2022/07/14 09:27:53;;;;;;;2.03;0.38;;;19.00;99.90;;;;;;5087800;28;20047;-65
2022/07/14 09:30:20;;;;;;;1.27;0.55;;;19.00;99.90;;;;;;5089082;28;20122;-65
2022/07/14 09:32:56;;;;;;;3.58;0.73;;;19.00;99.90;;;;;;5086815;28;20056;-65
2022/07/14 09:35:42;;;;;;;4.90;2.28;;;19.10;99.90;;;;;;5088468;28;20048;-66
2022/07/14 09:38:23;;;;;;;3.65;1.17;;;19.20;99.90;;;;;;5086852;28;20426;-65
2022/07/14 09:40:49;;;;;;;1.45;0.47;;;19.30;99.90;;;;;;5088176;28;20655;-65
2022/07/14 09:43:16;;;;;;;1.95;0.75;;;19.30;99.90;;;;;;5086742;28;20131;-66
2022/07/14 09:45:46;;;;;;;1.85;0.40;;;19.50;99.90;;;;;;5087590;28;20075;-65
2022/07/14 09:48:14;;;;;;;2.22;0.60;;;19.70;99.90;;;;;;5087892;28;20039;-65
2022/07/14 09:50:49;;;;;;;3.00;0.82;;;19.70;99.90;;;;;;5088405;28;20882;-65
2022/07/14 09:53:17;;;;;;;1.00;0.30;;;19.70;99.90;;;;;;5086992;28;20075;-65
2022/07/14 09:56:05;;;;;;;2.05;0.40;;;19.60;99.90;;;;;;5087823;28;20135;-65
2022/07/14 09:58:32;;;;;;;2.25;0.40;;;19.60;99.90;;;;;;5087503;28;20517;-65
2022/07/14 10:01:00;;;;;;;1.35;0.50;;;19.60;99.90;;;;;;5086384;28;20246;-65
2022/07/14 10:03:28;;;;;;;2.83;0.60;;;19.50;99.90;;;;;;5087443;28;20590;-65
2022/07/14 10:05:55;;;;;;;3.45;0.55;;;19.50;99.90;;;;;;5086040;28;20062;-65
2022/07/14 10:08:26;;;;;;;1.38;0.30;;;19.60;99.90;;;;;;5086898;28;20082;-65
2022/07/14 10:10:53;;;;;;;3.63;0.57;;;19.60;99.90;;;;;;5087241;28;20062;-65
2022/07/14 10:13:19;;;;;;;1.20;0.52;;;19.60;99.90;;;;;;5087129;28;20558;-65
2022/07/14 10:15:49;;;;;;;2.40;0.70;;;19.70;99.90;;;;;;5087493;28;20113;-65
2022/07/14 10:18:15;;;;;;;0.98;0.45;;;19.90;99.90;;;;;;5086089;28;20058;-65
2022/07/14 10:20:45;;;;;;;0.90;0.40;;;19.80;99.90;;;;;;5086693;28;20043;-65
2022/07/14 10:23:12;;;;;;;3.58;0.60;;;19.80;99.90;;;;;;5085668;28;20040;-65
2022/07/14 10:25:39;;;;;;;2.63;0.77;;;19.80;99.90;;;;;;5085892;28;20159;-65
2022/07/14 10:28:05;;;;;;;1.05;0.35;;;19.90;99.90;;;;;;5085890;28;20032;-65
2022/07/14 10:30:39;;;;;;;0.98;0.60;;;20.00;99.90;;;;;;5085752;28;20505;-65
2022/07/14 10:33:28;;;;;;;0.75;0.68;;;20.00;99.90;;;;;;5085552;28;20330;-65
2022/07/14 10:36:10;;;;;;;2.25;0.40;;;19.90;99.90;;;;;;5038122;28;20064;-65
2022/07/14 10:39:01;;;;;;;3.25;0.60;;;19.80;99.90;;;;;;5086263;28;20044;-65
2022/07/14 10:41:48;;;;;;;0.65;0.30;;;19.70;99.90;;;;;;5086583;28;20368;-65
2022/07/14 10:44:23;;;;;;;1.70;0.60;;;19.60;99.90;;;;;;5088116;28;20475;-65
2022/07/14 10:46:52;;;;;;;3.45;0.50;;;19.50;99.90;;;;;;5087045;28;20076;-65
2022/07/14 10:49:18;;;;;;;2.42;0.45;;;19.60;99.90;;;;;;5088247;28;20044;-65
2022/07/14 10:51:48;;;;;;;2.78;0.50;;;19.50;99.90;;;;;;5086863;28;20048;-65
2022/07/14 10:54:24;;;;;;;1.70;0.57;;;19.40;99.90;;;;;;5086746;28;20063;-65
2022/07/14 10:57:06;;;;;;;2.42;0.60;;;19.50;99.90;;;;;;5086333;28;20169;-65
2022/07/14 10:59:33;;;;;;;2.10;0.73;;;19.50;99.90;;;;;;5086439;28;20052;-65
2022/07/14 11:02:14;;;;;;;0.68;0.52;;;19.60;99.90;;;;;;5086177;28;20067;-65
2022/07/14 11:05:04;;;;;;;1.05;0.50;;;19.50;99.90;;;;;;5084609;28;20055;-65
2022/07/14 11:07:50;;;;;;;2.22;0.30;;;19.40;99.90;;;;;;5086360;28;20509;-66
2022/07/14 11:10:18;;;;;;;5.28;0.77;;;19.40;99.90;;;;;;5085655;28;20055;-65
2022/07/14 11:12:59;;;;;;;1.52;0.40;;;19.40;99.90;;;;;;5086475;28;20394;-65
2022/07/14 11:15:44;;;;;;;0.93;0.47;;;19.50;99.90;;;;;;5086390;28;20054;-65
2022/07/14 11:18:19;;;;;;;1.20;0.50;;;19.50;99.90;;;;;;5084072;28;20056;-66
2022/07/14 11:21:11;;;;;;;3.72;0.60;;;19.50;99.90;;;;;;5086197;28;20047;-65
2022/07/14 11:23:52;;;;;;;2.20;0.63;;;19.60;99.90;;;;;;5085314;28;20089;-65
2022/07/14 11:26:37;;;;;;;2.58;0.70;;;19.80;99.90;;;;;;5085429;28;20044;-65
2022/07/14 11:29:09;;;;;;;0.80;0.60;;;20.00;99.90;;;;;;5085777;28;20510;-65
2022/07/14 11:31:50;;;;;;;1.27;0.30;;;20.20;99.90;;;;;;5085457;28;20521;-65
2022/07/14 11:37:11;;;;;;;1.90;0.40;;;20.40;99.90;;;;;;5085777;28;20079;-65
2022/07/14 11:39:38;;;;;;;2.80;0.50;;;20.50;99.90;;;;;;5085314;28;20086;-65
2022/07/14 11:42:07;;;;;;;5.57;0.32;;;20.50;99.90;;;;;;5085555;28;20529;-65
2022/07/14 11:44:35;;;;;;;1.42;0.60;;;20.60;99.90;;;;;;5085466;28;20040;-65
2022/07/14 11:47:05;;;;;;;2.38;0.77;;;20.70;99.90;;;;;;5085720;28;20040;-65
2022/07/14 11:49:32;;;;;;;3.30;0.40;;;20.70;99.90;;;;;;5085975;28;20085;-65
2022/07/14 11:51:59;;;;;;;1.95;0.50;;;20.70;99.90;;;;;;5084861;28;20082;-65
2022/07/14 11:54:26;;;;;;;1.27;0.40;;;20.60;99.90;;;;;;5085995;28;20040;-65
2022/07/14 11:57:09;;;;;;;3.75;0.75;;;20.60;99.90;;;;;;5085603;28;20199;-65
2022/07/14 11:59:39;;;;;;;2.17;0.90;;;20.60;99.90;;;;;;5084845;28;20067;-65
2022/07/14 12:02:17;;;;;;;1.98;0.50;;;20.50;99.90;;;;;;5085439;28;20074;-65
2022/07/14 12:04:58;;;;;;;3.10;0.73;;;20.50;99.90;;;;;;5085888;28;20036;-65
2022/07/14 12:07:26;;;;;;;3.88;0.65;;;20.50;99.90;;;;;;5084838;28;20047;-66
2022/07/14 12:09:53;;;;;;;1.92;0.70;;;20.60;99.90;;;;;;5085485;28;20028;-65
2022/07/14 12:12:21;;;;;;;1.60;0.60;;;20.60;99.90;;;;;;5086521;28;20044;-65
2022/07/14 12:14:52;;;;;;;1.90;1.05;;;20.60;99.90;;;;;;5085023;28;20040;-65
2022/07/14 12:17:20;;;;;;;2.78;0.60;;;20.60;99.90;;;;;;5086269;28;20541;-65
2022/07/14 12:19:47;;;;;;;2.75;0.65;;;20.50;99.90;;;;;;5084970;28;20040;-65
2022/07/14 12:22:15;;;;;;;4.40;0.65;;;20.50;99.90;;;;;;5085500;28;20044;-65
2022/07/14 12:24:41;;;;;;;3.78;1.00;;;20.70;99.90;;;;;;5085737;28;20307;-65
2022/07/14 12:27:09;;;;;;;3.45;0.50;;;21.10;99.90;;;;;;5084350;28;20411;-65
2022/07/14 12:29:36;;;;;;;2.35;0.60;;;21.00;99.90;;;;;;5084341;28;20039;-65
2022/07/14 12:32:02;;;;;;;3.22;0.60;;;20.80;99.90;;;;;;5085027;28;20075;-65
2022/07/14 12:34:30;;;;;;;4.60;0.57;;;20.70;99.90;;;;;;5084819;28;20441;-65
2022/07/14 12:36:58;;;;;;;2.97;0.60;;;20.60;99.90;;;;;;5085184;28;20090;-65
2022/07/14 12:39:25;;;;;;;1.65;0.47;;;20.90;99.90;;;;;;5085311;28;20040;-65
2022/07/14 12:41:51;;;;;;;1.85;0.60;;;20.90;99.90;;;;;;5084743;28;20079;-65
2022/07/14 12:44:17;;;;;;;5.97;0.82;;;21.00;99.90;;;;;;5085905;28;20051;-65
2022/07/14 12:46:42;;;;;;;2.85;0.50;;;21.10;99.90;;;;;;5087622;28;20044;-65
2022/07/14 12:49:09;;;;;;;2.53;0.65;;;21.20;99.90;;;;;;5088292;28;20052;-65
2022/07/14 12:51:43;;;;;;;2.58;0.60;;;21.30;99.90;;;;;;5088995;28;20123;-64
2022/07/14 12:54:15;;;;;;;3.25;0.68;;;21.20;99.90;;;;;;5089257;28;20052;-65
2022/07/14 12:56:41;;;;;;;5.47;0.90;;;21.20;99.90;;;;;;5086910;28;20542;-66
2022/07/14 12:59:10;;;;;;;10.18;1.17;;;21.00;99.90;;;;;;5088684;28;20138;-65